Time;durP1;ratioP1;P1;durP2;ratioP2;P2;SDS_P1;SDS_P2;PMS_P1;PMS_P2;Temp;Humidity;BMP_temperature;BMP_pressure;BME280_temperature;BME280_humidity;BME280_pressure;Samples;Min_cycle;Max_cycle;Signal;HPM_P1;HPM_P2
2022/10/27 00:01:59;;;;;;;1.57;1.57;;;;;;;;;;4960117;28;20572;-56
2022/10/27 00:04:25;;;;;;;1.47;1.47;;;;;;;;;;4942011;28;21262;-56
2022/10/27 00:06:51;;;;;;;1.87;1.77;;;;;;;;;;4942855;28;20728;-54
2022/10/27 00:09:17;;;;;;;1.97;1.87;;;;;;;;;;4963824;28;20709;-55
2022/10/27 00:11:43;;;;;;;1.50;1.50;;;;;;;;;;4945325;28;20312;-56
2022/10/27 00:14:09;;;;;;;1.90;1.80;;;;;;;;;;4942450;28;20595;-56
2022/10/27 00:16:35;;;;;;;1.80;1.70;;;;;;;;;;4959010;28;20686;-58
2022/10/27 00:19:01;;;;;;;1.80;1.70;;;;;;;;;;4958992;28;20868;-55
2022/10/27 00:21:27;;;;;;;1.50;1.50;;;;;;;;;;4955293;28;20293;-55
2022/10/27 00:23:53;;;;;;;1.50;1.50;;;;;;;;;;4947986;28;20704;-55
2022/10/27 00:26:19;;;;;;;1.40;1.40;;;;;;;;;;4952649;28;20802;-55
2022/10/27 00:28:45;;;;;;;1.50;1.50;;;;;;;;;;4961924;28;20250;-56
2022/10/27 00:31:12;;;;;;;1.77;1.70;;;;;;;;;;4944740;28;20232;-55
2022/10/27 00:33:38;;;;;;;1.80;1.70;;;;;;;;;;4955191;28;20261;-54
2022/10/27 00:36:08;;;;;;;1.60;1.60;;;;;;;;;;4945001;28;20676;-56
2022/10/27 00:38:34;;;;;;;1.90;1.80;;;;;;;;;;4949210;28;20334;-54
2022/10/27 00:41:00;;;;;;;1.50;1.50;;;;;;;;;;4950936;28;20227;-56
2022/10/27 00:43:33;;;;;;;1.67;1.67;;;;;;;;;;4949399;28;20242;-55
2022/10/27 00:46:18;;;;;;;1.50;1.50;;;;;;;;;;4946963;28;20225;-55
2022/10/27 00:48:44;;;;;;;1.90;1.80;;;;;;;;;;4952873;28;20285;-55
2022/10/27 00:51:10;;;;;;;1.50;1.50;;;;;;;;;;4945564;28;20227;-54
2022/10/27 00:53:36;;;;;;;2.00;1.90;;;;;;;;;;4961158;28;20581;-55
2022/10/27 00:56:02;;;;;;;1.60;1.60;;;;;;;;;;4955961;28;20906;-54
2022/10/27 00:58:28;;;;;;;1.80;1.70;;;;;;;;;;4956341;28;20235;-55
2022/10/27 01:00:54;;;;;;;1.70;1.70;;;;;;;;;;4942252;28;20237;-54
2022/10/27 01:03:20;;;;;;;1.60;1.60;;;;;;;;;;4950715;28;20226;-54
2022/10/27 01:05:46;;;;;;;1.60;1.60;;;;;;;;;;4965526;28;20295;-55
2022/10/27 01:08:13;;;;;;;1.40;1.40;;;;;;;;;;4941031;28;20238;-57
2022/10/27 01:10:39;;;;;;;1.93;1.83;;;;;;;;;;4939634;28;20234;-55
2022/10/27 01:13:05;;;;;;;1.13;1.13;;;;;;;;;;4957350;28;20233;-55
2022/10/27 01:15:31;;;;;;;1.10;1.10;;;;;;;;;;4950989;28;20693;-55
2022/10/27 01:18:15;;;;;;;1.10;1.10;;;;;;;;;;4950859;28;20230;-55
2022/10/27 01:20:44;;;;;;;0.93;0.93;;;;;;;;;;4947893;28;20673;-56
2022/10/27 01:23:16;;;;;;;1.10;1.10;;;;;;;;;;4951776;28;20357;-56
2022/10/27 01:26:01;;;;;;;1.10;1.10;;;;;;;;;;4947009;28;20597;-56
2022/10/27 01:28:36;;;;;;;1.00;1.00;;;;;;;;;;4948256;28;20299;-55
2022/10/27 01:31:09;;;;;;;1.20;1.20;;;;;;;;;;4930736;28;20613;-55
2022/10/27 01:33:37;;;;;;;0.90;0.90;;;;;;;;;;4932189;28;20222;-55
2022/10/27 01:36:05;;;;;;;1.10;1.10;;;;;;;;;;4944857;28;20785;-56
2022/10/27 01:38:31;;;;;;;1.00;1.00;;;;;;;;;;4939198;28;20250;-56
2022/10/27 01:41:06;;;;;;;1.30;1.30;;;;;;;;;;4943971;28;20226;-55
2022/10/27 01:43:32;;;;;;;1.00;1.00;;;;;;;;;;4963736;28;20734;-55
2022/10/27 01:45:57;;;;;;;1.03;1.03;;;;;;;;;;4941594;28;20221;-56
2022/10/27 01:48:23;;;;;;;0.90;0.90;;;;;;;;;;4937535;28;20336;-55
2022/10/27 01:50:49;;;;;;;0.97;0.97;;;;;;;;;;4943095;28;20906;-56
2022/10/27 01:53:15;;;;;;;1.40;1.40;;;;;;;;;;4926962;28;20257;-55
2022/10/27 01:56:00;;;;;;;1.20;1.20;;;;;;;;;;4947982;28;22273;-54
2022/10/27 01:58:35;;;;;;;1.00;1.00;;;;;;;;;;4942538;28;20289;-56
2022/10/27 02:01:11;;;;;;;1.00;1.00;;;;;;;;;;4937176;28;21169;-56
2022/10/27 02:03:43;;;;;;;1.07;1.07;;;;;;;;;;4940321;28;20250;-56
2022/10/27 02:06:10;;;;;;;1.00;1.00;;;;;;;;;;4936799;28;20261;-57
2022/10/27 02:08:40;;;;;;;1.27;1.27;;;;;;;;;;4921966;28;20223;-55
2022/10/27 02:11:07;;;;;;;1.10;1.10;;;;;;;;;;4923813;28;20756;-56
2022/10/27 02:13:34;;;;;;;0.90;0.90;;;;;;;;;;4955334;28;20940;-55
2022/10/27 02:16:01;;;;;;;1.13;1.13;;;;;;;;;;4937836;28;20222;-55
2022/10/27 02:18:28;;;;;;;1.40;1.40;;;;;;;;;;4929482;28;20230;-54
2022/10/27 02:20:56;;;;;;;1.00;1.00;;;;;;;;;;4951283;28;20647;-55
2022/10/27 02:23:22;;;;;;;1.10;1.10;;;;;;;;;;4936505;28;20226;-56
2022/10/27 02:25:50;;;;;;;0.90;0.90;;;;;;;;;;4943697;28;20819;-55
2022/10/27 02:28:16;;;;;;;1.00;1.00;;;;;;;;;;4936155;28;20903;-55
2022/10/27 02:30:42;;;;;;;0.90;0.90;;;;;;;;;;4927711;28;20268;-56
2022/10/27 02:33:08;;;;;;;1.10;1.10;;;;;;;;;;4952010;28;20628;-56
2022/10/27 02:35:34;;;;;;;1.20;1.20;;;;;;;;;;4928552;28;20580;-55
2022/10/27 02:38:00;;;;;;;1.20;1.20;;;;;;;;;;4971958;28;20226;-55
2022/10/27 02:40:26;;;;;;;1.10;1.10;;;;;;;;;;4946311;28;20765;-56
2022/10/27 02:42:52;;;;;;;1.00;1.00;;;;;;;;;;4954330;28;20307;-56
2022/10/27 02:45:19;;;;;;;1.00;1.00;;;;;;;;;;4965496;28;20303;-55
2022/10/27 02:47:45;;;;;;;1.20;1.20;;;;;;;;;;4959019;28;20249;-55
2022/10/27 02:50:11;;;;;;;1.00;1.00;;;;;;;;;;4956262;28;20265;-54
2022/10/27 02:52:37;;;;;;;1.20;1.20;;;;;;;;;;4939622;28;20970;-56
2022/10/27 02:55:03;;;;;;;1.20;1.20;;;;;;;;;;4937442;28;20308;-55
2022/10/27 02:57:29;;;;;;;1.10;1.10;;;;;;;;;;4962738;28;20374;-56
2022/10/27 02:59:54;;;;;;;1.10;1.10;;;;;;;;;;4962302;28;20231;-56
2022/10/27 03:02:22;;;;;;;1.13;1.13;;;;;;;;;;4959864;28;20589;-55
2022/10/27 03:04:47;;;;;;;1.30;1.30;;;;;;;;;;4960581;28;20801;-55
2022/10/27 03:07:13;;;;;;;1.30;1.30;;;;;;;;;;4954250;28;20227;-55
2022/10/27 03:09:39;;;;;;;1.30;1.30;;;;;;;;;;4947890;28;20230;-57
2022/10/27 03:12:05;;;;;;;1.10;1.10;;;;;;;;;;4958763;28;20832;-55
2022/10/27 03:14:31;;;;;;;1.00;1.00;;;;;;;;;;4942898;28;20227;-55
2022/10/27 03:16:57;;;;;;;1.17;1.17;;;;;;;;;;4960653;28;20266;-54
2022/10/27 03:19:23;;;;;;;1.00;1.00;;;;;;;;;;4949470;28;20226;-55
2022/10/27 03:21:49;;;;;;;1.03;1.03;;;;;;;;;;4945147;28;20691;-56
2022/10/27 03:24:15;;;;;;;1.10;1.10;;;;;;;;;;4954146;28;20231;-55
2022/10/27 03:26:41;;;;;;;0.90;0.90;;;;;;;;;;4950589;28;20232;-55
2022/10/27 03:29:07;;;;;;;1.10;1.10;;;;;;;;;;4950776;28;20259;-56
2022/10/27 03:31:33;;;;;;;1.30;1.30;;;;;;;;;;4954243;28;20230;-56
2022/10/27 03:33:59;;;;;;;1.80;1.70;;;;;;;;;;4950367;28;20705;-55
2022/10/27 03:36:25;;;;;;;1.57;1.57;;;;;;;;;;4956949;28;20250;-55
2022/10/27 03:38:53;;;;;;;1.40;1.40;;;;;;;;;;4954735;28;20218;-56
2022/10/27 03:41:19;;;;;;;1.83;1.73;;;;;;;;;;4962314;28;20257;-56
2022/10/27 03:43:44;;;;;;;1.50;1.50;;;;;;;;;;4963021;28;20329;-55
2022/10/27 03:46:10;;;;;;;1.40;1.40;;;;;;;;;;4951183;28;20244;-55
2022/10/27 03:48:36;;;;;;;1.63;1.63;;;;;;;;;;4939367;28;22070;-55
2022/10/27 03:51:02;;;;;;;1.87;1.77;;;;;;;;;;4955906;28;20230;-57
2022/10/27 03:53:28;;;;;;;1.30;1.30;;;;;;;;;;4953037;28;20263;-56
2022/10/27 03:55:54;;;;;;;1.40;1.40;;;;;;;;;;4948555;28;20267;-56
2022/10/27 03:58:20;;;;;;;1.10;1.10;;;;;;;;;;4946775;28;20265;-55
2022/10/27 04:00:46;;;;;;;1.40;1.40;;;;;;;;;;4929302;28;20222;-55
2022/10/27 04:03:13;;;;;;;1.47;1.47;;;;;;;;;;4944002;28;20231;-56
2022/10/27 04:05:38;;;;;;;1.20;1.20;;;;;;;;;;4954461;28;20240;-56
2022/10/27 04:08:04;;;;;;;1.23;1.23;;;;;;;;;;4960344;28;20225;-55
2022/10/27 04:10:30;;;;;;;1.10;1.10;;;;;;;;;;4965397;28;20958;-57
2022/10/27 04:12:56;;;;;;;1.30;1.30;;;;;;;;;;4944391;28;20269;-54
2022/10/27 04:15:23;;;;;;;1.60;1.60;;;;;;;;;;4943725;28;20213;-56
2022/10/27 04:17:52;;;;;;;1.60;1.60;;;;;;;;;;4947099;28;20521;-56
2022/10/27 04:20:18;;;;;;;1.57;1.57;;;;;;;;;;4947826;28;20227;-56
2022/10/27 04:22:43;;;;;;;2.40;2.30;;;;;;;;;;4961150;28;20277;-55
2022/10/27 04:25:09;;;;;;;2.27;2.17;;;;;;;;;;4956732;28;20234;-56
2022/10/27 04:27:35;;;;;;;2.30;2.20;;;;;;;;;;4950207;28;20711;-57
2022/10/27 04:30:01;;;;;;;2.20;2.10;;;;;;;;;;4957684;28;20685;-56
2022/10/27 04:32:27;;;;;;;2.00;1.90;;;;;;;;;;4949894;28;20756;-55
2022/10/27 04:34:53;;;;;;;1.90;1.80;;;;;;;;;;4954450;28;20246;-54
2022/10/27 04:37:19;;;;;;;2.00;1.90;;;;;;;;;;4961706;28;20237;-56
2022/10/27 04:39:45;;;;;;;2.10;2.00;;;;;;;;;;4970549;28;20641;-55
2022/10/27 04:42:11;;;;;;;1.20;1.20;;;;;;;;;;4948456;28;20644;-56
2022/10/27 04:44:37;;;;;;;1.30;1.30;;;;;;;;;;4955028;28;20715;-55
2022/10/27 04:47:03;;;;;;;1.13;1.13;;;;;;;;;;4950756;28;20222;-56
2022/10/27 04:49:29;;;;;;;1.00;1.00;;;;;;;;;;4952377;28;20759;-56
2022/10/27 04:51:55;;;;;;;0.90;0.90;;;;;;;;;;4942132;28;20665;-55
2022/10/27 04:54:21;;;;;;;1.10;1.10;;;;;;;;;;4937062;28;20343;-55
2022/10/27 04:56:47;;;;;;;0.97;0.97;;;;;;;;;;4933218;28;20228;-55
2022/10/27 04:59:13;;;;;;;1.10;1.10;;;;;;;;;;4948012;28;20222;-55
2022/10/27 05:01:39;;;;;;;1.00;1.00;;;;;;;;;;4937130;28;20222;-56
2022/10/27 05:04:05;;;;;;;1.20;1.20;;;;;;;;;;4958750;28;20231;-55
2022/10/27 05:06:31;;;;;;;1.20;1.20;;;;;;;;;;4959905;28;20256;-55
2022/10/27 05:08:57;;;;;;;1.10;1.10;;;;;;;;;;4951452;28;20230;-56
2022/10/27 05:11:23;;;;;;;1.10;1.10;;;;;;;;;;4965036;28;20218;-55
2022/10/27 05:13:49;;;;;;;1.03;1.03;;;;;;;;;;4960952;28;20656;-56
2022/10/27 05:16:15;;;;;;;1.00;1.00;;;;;;;;;;4951646;28;20269;-54
2022/10/27 05:18:41;;;;;;;1.10;1.10;;;;;;;;;;4958697;28;20883;-53
2022/10/27 05:21:07;;;;;;;1.00;1.00;;;;;;;;;;4960394;28;20277;-56
2022/10/27 05:23:33;;;;;;;1.20;1.20;;;;;;;;;;4968494;28;20846;-53
2022/10/27 05:25:59;;;;;;;1.10;1.10;;;;;;;;;;4950621;28;20249;-57
2022/10/27 05:28:25;;;;;;;1.10;1.10;;;;;;;;;;4955772;28;20230;-59
2022/10/27 05:30:55;;;;;;;1.10;1.10;;;;;;;;;;4945590;28;20225;-58
2022/10/27 05:33:21;;;;;;;1.00;1.00;;;;;;;;;;4969926;28;20276;-58
2022/10/27 05:35:48;;;;;;;1.10;1.10;;;;;;;;;;4968000;28;20228;-59
2022/10/27 05:38:14;;;;;;;1.10;1.10;;;;;;;;;;4966100;28;22030;-58
2022/10/27 05:40:40;;;;;;;1.10;1.10;;;;;;;;;;4963228;28;20229;-59
2022/10/27 05:43:06;;;;;;;1.70;1.70;;;;;;;;;;4953858;28;20226;-58
2022/10/27 05:45:33;;;;;;;2.10;2.00;;;;;;;;;;4973049;28;20598;-59
2022/10/27 05:47:59;;;;;;;2.00;1.90;;;;;;;;;;4965873;28;20276;-59
2022/10/27 05:50:25;;;;;;;2.10;2.00;;;;;;;;;;4969923;28;20240;-58
2022/10/27 05:52:51;;;;;;;2.30;2.20;;;;;;;;;;4959296;28;20305;-58
2022/10/27 05:55:17;;;;;;;1.63;1.63;;;;;;;;;;4956638;28;20248;-58
2022/10/27 05:57:43;;;;;;;1.60;1.60;;;;;;;;;;4961397;28;20258;-58
2022/10/27 06:00:09;;;;;;;2.00;1.90;;;;;;;;;;4948635;28;20337;-59
2022/10/27 06:02:35;;;;;;;1.90;1.80;;;;;;;;;;4960569;28;20230;-58
2022/10/27 06:05:01;;;;;;;2.13;2.03;;;;;;;;;;4969562;28;20234;-59
2022/10/27 06:07:27;;;;;;;1.80;1.70;;;;;;;;;;4964380;28;20316;-59
2022/10/27 06:09:53;;;;;;;2.00;1.90;;;;;;;;;;4960002;28;20266;-58
2022/10/27 06:12:19;;;;;;;2.03;1.93;;;;;;;;;;4972115;28;20300;-59
2022/10/27 06:14:45;;;;;;;2.10;2.00;;;;;;;;;;4974767;28;20225;-58
2022/10/27 06:17:11;;;;;;;2.07;1.97;;;;;;;;;;4976582;28;20222;-58
2022/10/27 06:19:37;;;;;;;1.90;1.80;;;;;;;;;;4976977;28;20285;-59
2022/10/27 06:22:02;;;;;;;1.87;1.77;;;;;;;;;;4966525;28;20226;-59
2022/10/27 06:24:28;;;;;;;1.40;1.40;;;;;;;;;;4975385;28;20321;-59
2022/10/27 06:26:54;;;;;;;2.00;1.90;;;;;;;;;;4988946;28;20222;-59
2022/10/27 06:29:20;;;;;;;1.83;1.73;;;;;;;;;;4976913;28;20640;-59
2022/10/27 06:31:46;;;;;;;1.70;1.70;;;;;;;;;;4971455;28;20237;-59
2022/10/27 06:34:12;;;;;;;1.90;1.80;;;;;;;;;;4980796;28;20349;-59
2022/10/27 06:36:38;;;;;;;2.10;2.00;;;;;;;;;;4959271;28;20317;-58
2022/10/27 06:39:04;;;;;;;1.53;1.53;;;;;;;;;;4980519;28;20225;-59
2022/10/27 06:41:30;;;;;;;1.40;1.40;;;;;;;;;;4979452;28;20230;-59
2022/10/27 06:43:56;;;;;;;2.23;2.13;;;;;;;;;;4977267;28;20718;-60
2022/10/27 06:46:22;;;;;;;1.90;1.80;;;;;;;;;;4974755;28;20720;-59
2022/10/27 06:48:48;;;;;;;1.73;1.70;;;;;;;;;;4973134;28;21176;-58
2022/10/27 06:51:14;;;;;;;1.60;1.60;;;;;;;;;;4971916;28;20226;-59
2022/10/27 06:53:40;;;;;;;2.40;2.30;;;;;;;;;;4966353;28;20296;-59
2022/10/27 06:56:06;;;;;;;1.13;1.13;;;;;;;;;;4958709;28;20308;-58
2022/10/27 06:58:34;;;;;;;1.10;1.10;;;;;;;;;;4977386;28;20590;-59
2022/10/27 07:00:59;;;;;;;1.20;1.20;;;;;;;;;;4950322;28;20617;-58
2022/10/27 07:03:25;;;;;;;1.10;1.10;;;;;;;;;;4955328;28;20228;-58
2022/10/27 07:05:51;;;;;;;1.17;1.17;;;;;;;;;;4954654;28;20484;-58
2022/10/27 07:08:17;;;;;;;1.10;1.10;;;;;;;;;;4947745;28;20226;-59
2022/10/27 07:10:43;;;;;;;1.00;1.00;;;;;;;;;;4941475;28;20263;-59
2022/10/27 07:13:09;;;;;;;1.17;1.17;;;;;;;;;;4945527;28;20220;-59
2022/10/27 07:15:37;;;;;;;1.00;1.00;;;;;;;;;;4963169;28;20292;-59
2022/10/27 07:18:05;;;;;;;0.90;0.90;;;;;;;;;;4951673;28;20246;-59
2022/10/27 07:20:33;;;;;;;1.00;1.00;;;;;;;;;;4945233;28;20223;-59
2022/10/27 07:22:59;;;;;;;0.90;0.90;;;;;;;;;;4959843;28;20221;-59
2022/10/27 07:25:25;;;;;;;1.10;1.10;;;;;;;;;;4950720;28;20229;-59
2022/10/27 07:27:54;;;;;;;1.00;1.00;;;;;;;;;;4939020;28;21029;-59
2022/10/27 07:30:21;;;;;;;1.00;1.00;;;;;;;;;;4950912;28;20262;-59
2022/10/27 07:32:47;;;;;;;1.00;1.00;;;;;;;;;;4951477;28;20694;-59
2022/10/27 07:35:13;;;;;;;1.30;1.30;;;;;;;;;;4945837;28;20242;-59
2022/10/27 07:37:43;;;;;;;1.10;1.10;;;;;;;;;;4941596;28;20235;-59
2022/10/27 07:40:09;;;;;;;1.00;1.00;;;;;;;;;;4952909;28;20724;-59
2022/10/27 07:42:47;;;;;;;1.30;1.30;;;;;;;;;;4950202;28;20258;-59
2022/10/27 07:45:14;;;;;;;1.10;1.10;;;;;;;;;;4953400;28;20813;-59
2022/10/27 07:47:44;;;;;;;1.17;1.17;;;;;;;;;;4944796;28;20236;-59
2022/10/27 07:50:10;;;;;;;1.10;1.10;;;;;;;;;;4934968;28;20286;-59
2022/10/27 07:52:42;;;;;;;0.90;0.90;;;;;;;;;;4947183;28;20585;-59
2022/10/27 07:55:08;;;;;;;1.00;1.00;;;;;;;;;;4937429;28;20240;-58
2022/10/27 07:57:34;;;;;;;1.03;1.03;;;;;;;;;;4955442;28;20653;-59
2022/10/27 08:00:00;;;;;;;1.00;1.00;;;;;;;;;;4948572;28;20716;-59
2022/10/27 08:02:26;;;;;;;0.90;0.90;;;;;;;;;;4953040;28;20239;-59
2022/10/27 08:04:53;;;;;;;0.80;0.80;;;;;;;;;;4957500;28;20230;-59
2022/10/27 08:07:19;;;;;;;0.90;0.90;;;;;;;;;;4972488;28;20229;-58
2022/10/27 08:09:45;;;;;;;1.00;1.00;;;;;;;;;;4951550;28;20282;-59
2022/10/27 08:12:11;;;;;;;0.80;0.80;;;;;;;;;;4967684;28;20232;-59
2022/10/27 08:14:37;;;;;;;1.10;1.10;;;;;;;;;;4972853;28;20227;-59
2022/10/27 08:17:03;;;;;;;1.00;1.00;;;;;;;;;;4967424;28;20305;-59
2022/10/27 08:19:29;;;;;;;0.80;0.80;;;;;;;;;;4962427;28;20764;-59
2022/10/27 08:21:55;;;;;;;1.10;1.10;;;;;;;;;;4973671;28;20299;-59
2022/10/27 08:24:21;;;;;;;0.90;0.90;;;;;;;;;;4971038;28;20257;-59
2022/10/27 08:26:47;;;;;;;0.97;0.97;;;;;;;;;;4976955;28;20597;-58
2022/10/27 08:29:13;;;;;;;0.80;0.80;;;;;;;;;;4968550;28;20301;-59
2022/10/27 08:31:39;;;;;;;0.70;0.70;;;;;;;;;;4972228;28;20234;-59
2022/10/27 08:34:04;;;;;;;0.70;0.70;;;;;;;;;;4955695;28;20580;-59
2022/10/27 08:36:37;;;;;;;1.00;1.00;;;;;;;;;;4960450;28;20233;-59
2022/10/27 08:39:03;;;;;;;1.00;1.00;;;;;;;;;;4942840;28;20231;-58
2022/10/27 08:41:49;;;;;;;0.93;0.93;;;;;;;;;;4971846;28;20759;-59
2022/10/27 08:44:16;;;;;;;0.90;0.90;;;;;;;;;;4963025;28;20720;-59
2022/10/27 08:46:55;;;;;;;0.70;0.70;;;;;;;;;;4965315;28;20261;-59
2022/10/27 08:49:30;;;;;;;1.00;1.00;;;;;;;;;;4952105;28;20264;-59
2022/10/27 08:52:02;;;;;;;0.90;0.90;;;;;;;;;;4966028;28;20600;-59
2022/10/27 08:54:28;;;;;;;1.47;1.47;;;;;;;;;;4964238;28;20232;-59
2022/10/27 08:56:56;;;;;;;1.40;1.40;;;;;;;;;;4948911;28;21061;-60
2022/10/27 08:59:22;;;;;;;1.10;1.10;;;;;;;;;;4948287;28;20220;-59
2022/10/27 09:02:07;;;;;;;0.70;0.70;;;;;;;;;;4959045;28;20231;-59
2022/10/27 09:04:36;;;;;;;0.90;0.90;;;;;;;;;;4970057;28;20264;-59
2022/10/27 09:07:11;;;;;;;0.90;0.90;;;;;;;;;;4960133;28;20225;-60
2022/10/27 09:09:53;;;;;;;0.80;0.80;;;;;;;;;;4968602;28;20225;-59
2022/10/27 09:12:38;;;;;;;0.70;0.70;;;;;;;;;;4969686;28;20241;-59
2022/10/27 09:15:22;;;;;;;0.60;0.60;;;;;;;;;;4977397;28;20261;-59
2022/10/27 09:17:50;;;;;;;0.70;0.70;;;;;;;;;;4979421;28;20249;-59
2022/10/27 09:20:42;;;;;;;0.88;0.88;;;;;;;;;;4953518;28;20222;-60
2022/10/27 09:23:17;;;;;;;1.00;1.00;;;;;;;;;;4974230;28;21587;-60
2022/10/27 09:25:44;;;;;;;0.82;0.82;;;;;;;;;;4981874;28;20299;-59
2022/10/27 09:28:12;;;;;;;0.80;0.80;;;;;;;;;;4959800;28;20739;-59
2022/10/27 09:30:38;;;;;;;0.88;0.88;;;;;;;;;;4949575;28;20227;-60
2022/10/27 09:33:04;;;;;;;0.80;0.80;;;;;;;;;;4947133;28;21152;-60
2022/10/27 09:35:30;;;;;;;1.00;1.00;;;;;;;;;;4957193;28;20250;-59
2022/10/27 09:37:59;;;;;;;1.38;1.38;;;;;;;;;;4986788;28;20263;-59
2022/10/27 09:40:26;;;;;;;1.60;1.60;;;;;;;;;;4973297;28;20233;-59
2022/10/27 09:42:53;;;;;;;1.60;1.60;;;;;;;;;;4967773;28;20233;-60
2022/10/27 09:45:20;;;;;;;1.60;1.60;;;;;;;;;;4981577;28;20242;-59
2022/10/27 09:47:51;;;;;;;1.67;1.67;;;;;;;;;;4979271;28;20626;-59
2022/10/27 09:50:18;;;;;;;1.58;1.58;;;;;;;;;;4972032;28;20233;-59
2022/10/27 09:52:45;;;;;;;1.50;1.50;;;;;;;;;;4983461;28;20265;-60
2022/10/27 09:55:11;;;;;;;1.50;1.50;;;;;;;;;;4976120;28;20235;-60
2022/10/27 09:57:37;;;;;;;1.83;1.73;;;;;;;;;;4978299;28;20582;-59
2022/10/27 10:00:05;;;;;;;1.30;1.30;;;;;;;;;;4959293;28;20246;-59
2022/10/27 10:02:32;;;;;;;1.45;1.45;;;;;;;;;;4954004;28;20227;-59
2022/10/27 10:04:58;;;;;;;1.30;1.30;;;;;;;;;;4980026;28;20233;-59
2022/10/27 10:07:32;;;;;;;1.42;1.42;;;;;;;;;;4981065;28;20218;-60
2022/10/27 10:10:01;;;;;;;1.50;1.50;;;;;;;;;;4959419;28;20667;-59
2022/10/27 10:12:27;;;;;;;1.63;1.63;;;;;;;;;;4979381;28;20321;-59
2022/10/27 10:15:13;;;;;;;1.40;1.40;;;;;;;;;;4974944;28;20304;-60
2022/10/27 10:17:39;;;;;;;1.30;1.30;;;;;;;;;;4977162;28;20241;-59
2022/10/27 10:20:06;;;;;;;1.20;1.20;;;;;;;;;;4965405;28;20300;-60
2022/10/27 10:22:35;;;;;;;1.27;1.27;;;;;;;;;;4977647;28;20239;-59
2022/10/27 10:25:20;;;;;;;1.40;1.40;;;;;;;;;;4970216;28;20245;-60
2022/10/27 10:27:47;;;;;;;1.50;1.50;;;;;;;;;;4959625;28;20973;-59
2022/10/27 10:30:19;;;;;;;1.48;1.48;;;;;;;;;;4972693;28;20294;-59
2022/10/27 10:32:49;;;;;;;1.50;1.50;;;;;;;;;;4971105;28;20279;-60
2022/10/27 10:35:33;;;;;;;1.40;1.40;;;;;;;;;;4969707;28;20222;-60
2022/10/27 10:37:59;;;;;;;2.53;2.42;;;;;;;;;;4970438;28;20233;-60
2022/10/27 10:40:26;;;;;;;1.40;1.40;;;;;;;;;;4976733;28;20664;-59
2022/10/27 10:43:02;;;;;;;1.40;1.40;;;;;;;;;;4959485;28;20221;-60
2022/10/27 10:45:29;;;;;;;1.30;1.30;;;;;;;;;;4966123;28;20279;-60
2022/10/27 10:48:15;;;;;;;1.50;1.50;;;;;;;;;;4951176;28;20235;-60
2022/10/27 10:50:46;;;;;;;1.40;1.40;;;;;;;;;;4966051;28;20261;-60
2022/10/27 10:53:18;;;;;;;1.25;1.25;;;;;;;;;;4959125;28;20260;-60
2022/10/27 10:55:44;;;;;;;1.40;1.40;;;;;;;;;;4957765;28;20322;-60
2022/10/27 10:58:11;;;;;;;1.40;1.40;;;;;;;;;;4955308;28;20228;-60
2022/10/27 11:00:37;;;;;;;1.40;1.40;;;;;;;;;;4943308;28;20398;-60
2022/10/27 11:03:14;;;;;;;1.40;1.40;;;;;;;;;;4963835;28;20218;-61
2022/10/27 11:05:40;;;;;;;1.42;1.42;;;;;;;;;;4970212;28;20448;-60
2022/10/27 11:08:06;;;;;;;1.30;1.30;;;;;;;;;;4961838;28;20221;-60
2022/10/27 11:10:33;;;;;;;1.40;1.40;;;;;;;;;;4955739;28;20228;-60
2022/10/27 11:13:12;;;;;;;1.40;1.40;;;;;;;;;;4952073;28;20269;-60
2022/10/27 11:15:41;;;;;;;1.38;1.38;;;;;;;;;;4955676;28;20230;-60
2022/10/27 11:18:18;;;;;;;1.30;1.30;;;;;;;;;;4979284;28;20236;-60
2022/10/27 11:20:45;;;;;;;1.20;1.20;;;;;;;;;;4965419;28;20228;-60
2022/10/27 11:23:16;;;;;;;1.38;1.38;;;;;;;;;;4979314;28;20228;-60
2022/10/27 11:25:41;;;;;;;1.40;1.40;;;;;;;;;;4968662;28;20236;-60
2022/10/27 11:28:16;;;;;;;1.52;1.52;;;;;;;;;;4977641;28;20214;-60
2022/10/27 11:30:53;;;;;;;1.40;1.40;;;;;;;;;;4973630;28;20835;-60
2022/10/27 11:33:27;;;;;;;1.60;1.60;;;;;;;;;;4958573;28;20219;-59
2022/10/27 11:35:55;;;;;;;1.48;1.48;;;;;;;;;;4975438;28;20748;-59
2022/10/27 11:38:27;;;;;;;1.40;1.40;;;;;;;;;;4950741;28;21084;-59
2022/10/27 11:41:10;;;;;;;1.55;1.55;;;;;;;;;;4946270;28;20221;-58
2022/10/27 11:43:36;;;;;;;1.50;1.50;;;;;;;;;;4975661;28;20236;-58
2022/10/27 11:46:10;;;;;;;1.40;1.40;;;;;;;;;;4974472;28;20215;-58
2022/10/27 11:48:37;;;;;;;1.67;1.67;;;;;;;;;;4966958;28;20266;-57
2022/10/27 11:51:10;;;;;;;1.60;1.60;;;;;;;;;;4952390;28;20222;-58
2022/10/27 11:53:36;;;;;;;1.50;1.50;;;;;;;;;;4963346;28;20304;-57
2022/10/27 11:56:14;;;;;;;1.60;1.60;;;;;;;;;;4971976;28;20321;-57
2022/10/27 11:58:55;;;;;;;1.50;1.50;;;;;;;;;;4964643;28;20261;-58
2022/10/27 12:01:40;;;;;;;1.40;1.40;;;;;;;;;;4961973;28;20235;-59
2022/10/27 12:04:10;;;;;;;1.50;1.50;;;;;;;;;;4961710;28;20361;-56
2022/10/27 12:06:38;;;;;;;1.30;1.30;;;;;;;;;;4931557;28;20775;-58
2022/10/27 12:09:04;;;;;;;1.40;1.40;;;;;;;;;;4912108;28;20406;-57
2022/10/27 12:11:36;;;;;;;1.50;1.50;;;;;;;;;;4927798;28;20227;-56
2022/10/27 12:14:05;;;;;;;1.40;1.40;;;;;;;;;;4934485;28;20252;-60
2022/10/27 12:16:34;;;;;;;1.40;1.40;;;;;;;;;;4935868;28;20607;-56
2022/10/27 12:19:12;;;;;;;1.40;1.40;;;;;;;;;;4947743;28;20214;-56
2022/10/27 12:21:40;;;;;;;1.40;1.40;;;;;;;;;;4962284;28;20226;-58
2022/10/27 12:24:09;;;;;;;1.42;1.42;;;;;;;;;;4919394;28;20213;-58
2022/10/27 12:26:37;;;;;;;1.48;1.48;;;;;;;;;;4930840;28;20251;-58
2022/10/27 12:29:03;;;;;;;1.45;1.45;;;;;;;;;;4940943;28;20223;-57
2022/10/27 12:31:29;;;;;;;1.30;1.30;;;;;;;;;;4972750;28;20238;-58
2022/10/27 12:33:55;;;;;;;1.50;1.50;;;;;;;;;;4959397;28;20842;-57
2022/10/27 12:36:33;;;;;;;1.50;1.50;;;;;;;;;;4965699;28;20629;-58
2022/10/27 12:39:18;;;;;;;1.50;1.50;;;;;;;;;;4966524;28;20230;-57
2022/10/27 12:41:46;;;;;;;1.40;1.40;;;;;;;;;;4950287;28;20232;-57
2022/10/27 12:44:30;;;;;;;1.40;1.40;;;;;;;;;;4946281;28;20241;-58
2022/10/27 12:47:06;;;;;;;1.38;1.38;;;;;;;;;;4964404;28;20221;-57
2022/10/27 12:49:35;;;;;;;1.50;1.50;;;;;;;;;;4971255;28;20310;-57
2022/10/27 12:52:27;;;;;;;1.60;1.60;;;;;;;;;;4979159;28;20225;-57
2022/10/27 12:55:00;;;;;;;1.50;1.50;;;;;;;;;;4966754;28;20322;-56
2022/10/27 12:57:45;;;;;;;1.50;1.50;;;;;;;;;;4977199;28;20239;-57
2022/10/27 13:00:14;;;;;;;1.40;1.40;;;;;;;;;;4982280;28;20218;-57
2022/10/27 13:02:59;;;;;;;1.50;1.50;;;;;;;;;;4956920;28;20280;-57
2022/10/27 13:05:28;;;;;;;1.50;1.50;;;;;;;;;;4971381;28;20731;-57
2022/10/27 13:08:13;;;;;;;1.60;1.60;;;;;;;;;;4975362;28;20698;-57
2022/10/27 13:10:41;;;;;;;1.50;1.50;;;;;;;;;;4969246;28;20717;-60
2022/10/27 13:13:12;;;;;;;1.40;1.40;;;;;;;;;;4969989;28;20654;-60
2022/10/27 13:15:42;;;;;;;1.70;1.70;;;;;;;;;;4968253;28;20562;-60
2022/10/27 13:18:11;;;;;;;1.65;1.65;;;;;;;;;;4976165;28;20849;-61
2022/10/27 13:20:47;;;;;;;1.30;1.30;;;;;;;;;;4970046;28;20629;-60
2022/10/27 13:23:33;;;;;;;1.55;1.55;;;;;;;;;;4972041;28;20234;-60
2022/10/27 13:26:08;;;;;;;1.60;1.60;;;;;;;;;;4943426;28;20554;-59
2022/10/27 13:28:41;;;;;;;1.60;1.60;;;;;;;;;;4956127;28;20596;-61
2022/10/27 13:31:13;;;;;;;1.50;1.50;;;;;;;;;;4948287;28;20253;-61
2022/10/27 13:33:39;;;;;;;1.60;1.60;;;;;;;;;;4968207;28;20226;-60
2022/10/27 13:36:18;;;;;;;1.70;1.70;;;;;;;;;;4964618;28;20222;-60
2022/10/27 13:38:44;;;;;;;1.88;1.77;;;;;;;;;;4964945;28;20238;-61
2022/10/27 13:41:10;;;;;;;2.00;1.90;;;;;;;;;;4973294;28;20235;-60
2022/10/27 13:43:36;;;;;;;1.60;1.60;;;;;;;;;;4964438;28;20217;-60
2022/10/27 13:46:02;;;;;;;1.70;1.70;;;;;;;;;;4970241;28;20224;-60
2022/10/27 13:48:29;;;;;;;1.48;1.48;;;;;;;;;;4964959;28;20237;-60
2022/10/27 13:50:56;;;;;;;1.50;1.50;;;;;;;;;;4960130;28;20221;-61
2022/10/27 13:53:22;;;;;;;1.50;1.50;;;;;;;;;;4970479;28;20233;-60
2022/10/27 13:55:58;;;;;;;1.60;1.60;;;;;;;;;;4968296;28;20230;-61
2022/10/27 13:58:32;;;;;;;1.67;1.67;;;;;;;;;;4961021;28;20228;-61
2022/10/27 14:01:04;;;;;;;1.60;1.60;;;;;;;;;;4947256;28;20316;-61
2022/10/27 14:03:36;;;;;;;1.60;1.60;;;;;;;;;;4968242;28;21079;-61
2022/10/27 14:06:03;;;;;;;1.60;1.60;;;;;;;;;;4966644;28;20239;-61
2022/10/27 14:08:29;;;;;;;1.60;1.60;;;;;;;;;;4969999;28;20725;-61
2022/10/27 14:11:07;;;;;;;1.50;1.50;;;;;;;;;;4962195;28;20222;-61
2022/10/27 14:13:40;;;;;;;1.60;1.60;;;;;;;;;;4943837;28;20261;-60
2022/10/27 14:16:06;;;;;;;1.50;1.50;;;;;;;;;;4955865;28;20223;-59
2022/10/27 14:18:33;;;;;;;1.65;1.65;;;;;;;;;;4947788;28;20231;-59
2022/10/27 14:21:01;;;;;;;1.50;1.50;;;;;;;;;;4946337;28;20226;-60
2022/10/27 14:23:27;;;;;;;1.80;1.70;;;;;;;;;;4960516;28;20852;-59
2022/10/27 14:25:53;;;;;;;1.60;1.60;;;;;;;;;;4956090;28;20265;-57
2022/10/27 14:28:20;;;;;;;1.50;1.50;;;;;;;;;;4959247;28;20341;-58
2022/10/27 14:30:47;;;;;;;1.50;1.50;;;;;;;;;;4966816;28;20225;-60
2022/10/27 14:33:22;;;;;;;1.60;1.60;;;;;;;;;;4975076;28;20226;-57
2022/10/27 14:35:48;;;;;;;1.80;1.70;;;;;;;;;;4989824;28;20230;-57
2022/10/27 14:38:18;;;;;;;1.60;1.60;;;;;;;;;;4987298;28;20226;-55
2022/10/27 14:40:44;;;;;;;1.80;1.70;;;;;;;;;;4974076;28;20226;-55
2022/10/27 14:43:15;;;;;;;2.10;2.00;;;;;;;;;;4964837;28;20218;-54
2022/10/27 14:45:41;;;;;;;1.85;1.75;;;;;;;;;;4973891;28;20287;-54
2022/10/27 14:48:07;;;;;;;1.88;1.77;;;;;;;;;;4969621;28;20233;-54
2022/10/27 14:50:39;;;;;;;1.73;1.70;;;;;;;;;;4963650;28;20231;-55
2022/10/27 14:53:05;;;;;;;1.75;1.70;;;;;;;;;;4971187;28;20222;-54